createdAt,value
2018-07-30T00:02:03.889Z,20.58
2018-07-30T00:04:31.982Z,20.59
2018-07-30T00:07:00.073Z,20.69
2018-07-30T00:09:28.163Z,20.60
2018-07-30T00:11:56.256Z,20.54
2018-07-30T00:14:24.351Z,20.45
2018-07-30T00:16:52.456Z,20.46
2018-07-30T00:19:20.597Z,20.47
2018-07-30T00:21:48.873Z,20.60
2018-07-30T00:24:17.445Z,20.51
2018-07-30T00:26:45.554Z,20.48
2018-07-30T00:29:14.425Z,20.50
2018-07-30T00:31:42.508Z,20.51
2018-07-30T00:34:10.617Z,20.48
2018-07-30T00:36:38.724Z,20.32
2018-07-30T00:39:09.625Z,20.26
2018-07-30T00:41:38.989Z,20.15
2018-07-30T00:44:07.386Z,19.99
2018-07-30T00:46:35.679Z,19.92
2018-07-30T00:49:03.780Z,19.85
2018-07-30T00:51:31.868Z,19.74
2018-07-30T00:54:00.143Z,19.70
2018-07-30T00:56:28.263Z,19.59
2018-07-30T00:58:56.707Z,19.45
2018-07-30T01:01:24.837Z,19.35
2018-07-30T01:03:53.154Z,19.35
2018-07-30T01:06:21.239Z,19.31
2018-07-30T01:08:49.344Z,19.33
2018-07-30T01:11:17.447Z,19.28
2018-07-30T01:13:45.575Z,19.28
2018-07-30T01:16:13.676Z,19.26
2018-07-30T01:18:41.794Z,19.24
2018-07-30T01:24:03.264Z,19.21
2018-07-30T01:26:31.352Z,19.20
2018-07-30T01:29:00.189Z,19.21
2018-07-30T01:31:28.500Z,19.19
2018-07-30T01:33:56.595Z,19.23
2018-07-30T01:36:24.700Z,19.22
2018-07-30T01:38:52.807Z,19.24
2018-07-30T01:41:20.909Z,19.30
2018-07-30T01:43:49.033Z,19.24
2018-07-30T01:46:17.123Z,19.08
2018-07-30T01:48:45.229Z,19.03
2018-07-30T01:51:13.359Z,18.98
2018-07-30T01:53:41.447Z,18.92
2018-07-30T01:56:09.931Z,18.87
2018-07-30T01:58:38.034Z,18.77
2018-07-30T02:01:06.259Z,18.78
2018-07-30T02:03:34.361Z,18.78
2018-07-30T02:06:02.452Z,18.73
2018-07-30T02:08:30.534Z,18.68
2018-07-30T02:10:58.944Z,18.59
2018-07-30T02:13:27.116Z,18.50
2018-07-30T02:15:55.206Z,18.47
2018-07-30T02:18:23.317Z,18.63
2018-07-30T02:20:51.407Z,18.78
2018-07-30T02:23:19.547Z,18.78
2018-07-30T02:25:47.836Z,18.73
2018-07-30T02:28:22.941Z,18.78
2018-07-30T02:30:51.035Z,18.70
2018-07-30T02:33:19.145Z,18.64
2018-07-30T02:35:47.284Z,18.60
2018-07-30T02:38:15.368Z,18.54
2018-07-30T02:40:43.523Z,18.45
2018-07-30T02:43:12.267Z,18.40
2018-07-30T02:45:40.376Z,18.45
2018-07-30T02:48:08.566Z,18.39
2018-07-30T02:50:36.640Z,18.28
2018-07-30T02:53:05.316Z,18.26
2018-07-30T02:55:33.392Z,18.24
2018-07-30T02:58:01.519Z,18.16
2018-07-30T03:00:30.576Z,18.15
2018-07-30T03:02:58.691Z,18.12
2018-07-30T03:05:26.814Z,18.12
2018-07-30T03:07:54.927Z,18.07
2018-07-30T03:10:23.014Z,18.06
2018-07-30T03:12:51.113Z,18.02
2018-07-30T03:15:19.205Z,17.96
2018-07-30T03:17:47.315Z,17.98
2018-07-30T03:20:15.424Z,17.98
2018-07-30T03:22:43.518Z,17.94
2018-07-30T03:25:11.633Z,17.95
2018-07-30T03:27:39.715Z,17.91
2018-07-30T03:30:09.210Z,17.88
2018-07-30T03:32:37.347Z,17.84
2018-07-30T03:35:05.967Z,17.76
2018-07-30T03:37:34.044Z,17.76
2018-07-30T03:40:02.150Z,17.75
2018-07-30T03:42:30.237Z,17.78
2018-07-30T03:44:58.341Z,17.81
2018-07-30T03:47:27.082Z,18.14
2018-07-30T03:49:55.323Z,18.24
2018-07-30T03:52:23.421Z,18.05
2018-07-30T04:00:57.982Z,17.90
2018-07-30T04:03:26.183Z,17.83
2018-07-30T04:05:54.447Z,17.84
2018-07-30T04:08:22.561Z,17.81
2018-07-30T04:10:50.741Z,17.85
2018-07-30T04:13:18.903Z,17.89
2018-07-30T04:15:47.065Z,17.84
2018-07-30T04:18:15.297Z,17.84
2018-07-30T04:20:44.302Z,18.03
2018-07-30T04:23:12.464Z,18.15
2018-07-30T04:25:40.605Z,18.26
2018-07-30T04:28:08.745Z,18.29
2018-07-30T04:30:36.962Z,18.34
2018-07-30T04:33:05.046Z,18.46
2018-07-30T04:35:33.140Z,18.51
2018-07-30T04:38:01.231Z,18.57
2018-07-30T04:40:29.324Z,18.54
2018-07-30T22:13:07.109Z,22.77
2018-07-30T22:15:35.447Z,22.87
2018-07-30T22:18:03.543Z,22.92
2018-07-30T22:20:31.705Z,22.83
2018-07-30T22:22:59.735Z,22.78
2018-07-30T22:25:27.837Z,22.79
2018-07-30T22:27:55.919Z,22.83
2018-07-30T22:30:25.020Z,22.77
2018-07-30T22:32:53.120Z,22.62
2018-07-30T22:35:21.495Z,22.53
2018-07-30T22:37:50.296Z,22.52
2018-07-30T22:40:18.397Z,22.43
2018-07-30T22:42:46.509Z,22.51
2018-07-30T22:45:14.790Z,22.43
2018-07-30T22:47:42.904Z,22.41
